Time;durP1;ratioP1;P1;durP2;ratioP2;P2;SDS_P1;SDS_P2;PMS_P1;PMS_P2;Temp;Humidity;BMP_temperature;BMP_pressure;BME280_temperature;BME280_humidity;BME280_pressure;Samples;Min_cycle;Max_cycle;Signal;HPM_P1;HPM_P2
2022/08/02 00:00:13;;;;;;;27.20;25.85;;;22.50;63.10;;;;;;5033356;28;20040;-78
2022/08/02 00:02:40;;;;;;;25.67;24.35;;;22.40;63.20;;;;;;5033793;28;20040;-78
2022/08/02 00:05:07;;;;;;;30.48;29.02;;;22.40;63.00;;;;;;5049676;28;20025;-78
2022/08/02 00:07:33;;;;;;;29.33;27.67;;;22.40;63.50;;;;;;5050828;28;20494;-79
2022/08/02 00:09:59;;;;;;;27.45;26.13;;;22.30;63.30;;;;;;5033676;28;20041;-78
2022/08/02 00:12:25;;;;;;;27.00;25.70;;;22.40;63.20;;;;;;5034005;28;20106;-79
2022/08/02 00:14:51;;;;;;;31.02;29.52;;;22.30;63.30;;;;;;5050393;28;20029;-78
2022/08/02 00:17:17;;;;;;;30.52;28.98;;;22.40;63.30;;;;;;5033308;28;20028;-79
2022/08/02 00:19:43;;;;;;;29.17;27.67;;;22.30;63.50;;;;;;5050418;28;20021;-79
2022/08/02 00:22:10;;;;;;;29.48;28.02;;;22.40;63.20;;;;;;5033467;28;20041;-79
2022/08/02 00:24:36;;;;;;;31.30;29.73;;;22.40;63.10;;;;;;5033481;28;20040;-79
2022/08/02 00:27:02;;;;;;;30.85;29.15;;;22.30;63.40;;;;;;5050313;28;20033;-79
2022/08/02 00:29:29;;;;;;;32.20;30.60;;;22.50;63.10;;;;;;5032948;28;20036;-79
2022/08/02 00:31:56;;;;;;;33.75;31.75;;;22.70;62.00;;;;;;5049494;28;20056;-78
2022/08/02 00:34:22;;;;;;;27.58;26.27;;;22.90;61.60;;;;;;5051185;28;20021;-79
2022/08/02 00:36:48;;;;;;;30.73;29.02;;;22.90;61.30;;;;;;5051205;28;20044;-79
2022/08/02 00:39:15;;;;;;;31.40;29.75;;;22.90;61.10;;;;;;5049951;28;20051;-79
2022/08/02 00:41:45;;;;;;;30.33;28.75;;;23.00;60.80;;;;;;5033666;28;20037;-79
2022/08/02 00:44:12;;;;;;;27.77;26.38;;;22.80;61.50;;;;;;5040004;28;20033;-79
2022/08/02 00:46:38;;;;;;;30.65;28.75;;;22.60;62.60;;;;;;5029829;28;20049;-79
2022/08/02 00:49:04;;;;;;;30.02;28.40;;;22.40;63.10;;;;;;5033487;28;20033;-79
2022/08/02 00:51:30;;;;;;;29.65;28.20;;;22.40;63.00;;;;;;5033253;28;20045;-79
2022/08/02 00:53:56;;;;;;;29.23;27.63;;;22.30;63.20;;;;;;5049834;28;20025;-79
2022/08/02 00:56:22;;;;;;;28.83;27.40;;;22.40;63.20;;;;;;5049967;28;20028;-79
2022/08/02 00:58:48;;;;;;;28.50;27.00;;;22.40;63.20;;;;;;5049430;28;20501;-79
2022/08/02 01:01:14;;;;;;;28.50;27.10;;;22.30;63.70;;;;;;5048806;28;20041;-79
2022/08/02 01:03:40;;;;;;;31.15;29.63;;;22.20;64.20;;;;;;5049731;28;20033;-78
2022/08/02 01:06:06;;;;;;;29.15;27.67;;;22.10;64.30;;;;;;5049722;28;20029;-79
2022/08/02 01:08:33;;;;;;;28.17;26.77;;;22.20;63.90;;;;;;5033221;28;20044;-79
2022/08/02 01:10:59;;;;;;;29.85;28.15;;;22.20;63.70;;;;;;5049406;28;20391;-78
2022/08/02 01:13:25;;;;;;;33.10;31.23;;;22.20;63.70;;;;;;5049100;28;20036;-79
2022/08/02 01:15:57;;;;;;;28.83;27.42;;;22.40;63.30;;;;;;5048763;28;20045;-79
2022/08/02 01:18:34;;;;;;;29.27;27.73;;;22.50;62.90;;;;;;5049570;28;20476;-79
2022/08/02 01:21:25;;;;;;;28.55;27.15;;;22.60;62.60;;;;;;5032679;28;20040;-79
2022/08/02 01:24:09;;;;;;;28.67;27.27;;;22.40;63.00;;;;;;5050892;28;20088;-79
2022/08/02 01:26:35;;;;;;;29.85;28.35;;;22.40;62.90;;;;;;5049394;28;20036;-79
2022/08/02 01:29:03;;;;;;;29.45;27.65;;;22.60;62.50;;;;;;5048769;28;20044;-78
2022/08/02 01:31:56;;;;;;;30.30;28.80;;;22.60;62.20;;;;;;5048528;28;20048;-79
2022/08/02 01:34:46;;;;;;;28.48;27.02;;;22.50;62.70;;;;;;5049149;28;20494;-79
2022/08/02 01:37:19;;;;;;;30.45;28.90;;;22.40;62.80;;;;;;5032463;28;20088;-78
2022/08/02 01:39:47;;;;;;;31.85;30.27;;;22.20;63.70;;;;;;5032424;28;20056;-79
2022/08/02 01:42:13;;;;;;;33.25;31.27;;;22.30;63.50;;;;;;5032345;28;20395;-79
2022/08/02 01:44:41;;;;;;;32.10;30.50;;;22.40;63.00;;;;;;5020149;28;20052;-79
2022/08/02 01:47:10;;;;;;;36.15;34.05;;;22.50;62.80;;;;;;5031644;28;20490;-79
2022/08/02 01:49:36;;;;;;;35.88;33.95;;;22.50;62.40;;;;;;5049231;28;20415;-79
2022/08/02 01:52:21;;;;;;;33.58;31.92;;;22.50;62.60;;;;;;5049029;28;20502;-79
2022/08/02 01:54:57;;;;;;;30.25;28.77;;;22.50;62.70;;;;;;5049207;28;20029;-79
2022/08/02 01:57:23;;;;;;;30.17;28.63;;;22.60;62.20;;;;;;5048652;28;20029;-79
2022/08/02 01:59:50;;;;;;;29.98;28.52;;;22.60;62.20;;;;;;5049157;28;20387;-79
2022/08/02 02:02:16;;;;;;;31.10;29.58;;;22.50;62.50;;;;;;5048322;28;20040;-79
2022/08/02 02:04:43;;;;;;;32.88;31.20;;;22.40;63.20;;;;;;5049109;28;20349;-79
2022/08/02 02:07:09;;;;;;;34.75;33.00;;;22.30;63.50;;;;;;5049165;28;20033;-79
2022/08/02 02:09:36;;;;;;;33.60;31.85;;;22.10;64.30;;;;;;5048983;28;20407;-79
2022/08/02 02:12:02;;;;;;;34.08;32.30;;;22.00;64.50;;;;;;5048530;28;20045;-79
2022/08/02 02:14:29;;;;;;;32.40;30.80;;;21.90;65.00;;;;;;5032175;28;20041;-79
2022/08/02 02:16:57;;;;;;;32.17;30.50;;;21.70;65.80;;;;;;5031528;28;20380;-79
2022/08/02 02:19:23;;;;;;;29.13;27.65;;;21.60;66.30;;;;;;5048809;28;20037;-78
2022/08/02 02:21:49;;;;;;;29.38;27.88;;;21.50;66.70;;;;;;5048824;28;20036;-79
2022/08/02 02:24:15;;;;;;;30.90;29.05;;;21.50;66.80;;;;;;5032277;28;20041;-79
2022/08/02 02:26:41;;;;;;;28.60;27.00;;;21.50;66.90;;;;;;5048456;28;20029;-78
2022/08/02 02:29:08;;;;;;;29.25;27.77;;;21.50;66.80;;;;;;5051192;28;20017;-78
2022/08/02 02:31:38;;;;;;;27.90;26.40;;;21.40;67.20;;;;;;5051492;28;20048;-78
2022/08/02 02:34:05;;;;;;;28.83;27.33;;;21.40;67.10;;;;;;5052254;28;20036;-79
2022/08/02 02:36:31;;;;;;;28.95;27.42;;;21.40;67.50;;;;;;5052315;28;20649;-78
2022/08/02 02:38:58;;;;;;;28.98;27.55;;;21.50;66.90;;;;;;5027705;28;20045;-78
2022/08/02 02:41:25;;;;;;;27.55;26.13;;;21.40;67.00;;;;;;5015439;28;20025;-79
2022/08/02 02:43:55;;;;;;;29.05;27.45;;;21.30;67.60;;;;;;5039939;28;20028;-78
2022/08/02 02:46:21;;;;;;;28.45;26.25;;;21.40;67.60;;;;;;5051468;28;20044;-79
2022/08/02 02:48:49;;;;;;;28.63;27.02;;;21.40;67.50;;;;;;5052032;28;20398;-78
2022/08/02 02:51:15;;;;;;;32.70;31.02;;;21.30;68.30;;;;;;5019062;28;20041;-78
2022/08/02 02:53:42;;;;;;;34.97;33.17;;;21.40;66.90;;;;;;5019067;28;20044;-78
2022/08/02 02:56:08;;;;;;;40.45;38.45;;;21.70;66.00;;;;;;5034982;28;20048;-79
2022/08/02 02:58:34;;;;;;;43.70;41.45;;;21.70;66.10;;;;;;5052023;28;20029;-79
2022/08/02 03:03:44;;;;;;;37.25;35.35;;;21.80;65.50;;;;;;5044597;28;20028;-78
2022/08/02 03:06:11;;;;;;;33.50;31.70;;;21.90;64.90;;;;;;5035316;28;20037;-79
2022/08/02 03:08:37;;;;;;;34.33;32.50;;;22.00;64.50;;;;;;5035246;28;20039;-78
2022/08/02 03:11:03;;;;;;;37.95;36.05;;;22.00;64.10;;;;;;5035046;28;20021;-79
2022/08/02 03:13:29;;;;;;;39.80;37.78;;;22.00;63.70;;;;;;5034846;28;20052;-79
2022/08/02 03:15:55;;;;;;;38.55;36.55;;;22.20;63.50;;;;;;5051196;28;20033;-78
2022/08/02 03:18:30;;;;;;;35.35;33.53;;;22.10;63.30;;;;;;5018531;28;20041;-79
2022/08/02 03:21:04;;;;;;;37.55;35.65;;;22.10;63.80;;;;;;5052785;28;20376;-79
2022/08/02 03:23:30;;;;;;;34.53;32.72;;;21.90;64.90;;;;;;5051203;28;20021;-79
2022/08/02 03:25:56;;;;;;;36.95;35.15;;;21.70;65.40;;;;;;5035177;28;20033;-79
2022/08/02 03:28:22;;;;;;;39.13;37.03;;;21.60;65.60;;;;;;5035098;28;20035;-78
2022/08/02 03:30:48;;;;;;;38.30;36.38;;;21.70;65.50;;;;;;5034261;28;20029;-79
2022/08/02 03:33:15;;;;;;;37.28;35.38;;;21.80;64.80;;;;;;5051144;28;20044;-79
2022/08/02 03:35:41;;;;;;;36.53;34.63;;;21.90;64.70;;;;;;5034829;28;20033;-79
2022/08/02 03:38:07;;;;;;;37.88;35.97;;;21.90;64.40;;;;;;5033025;28;20487;-79
2022/08/02 03:40:34;;;;;;;37.05;35.15;;;21.90;64.40;;;;;;4996661;28;20038;-79
2022/08/02 03:43:00;;;;;;;39.67;37.67;;;22.00;64.10;;;;;;4998571;28;20475;-79
2022/08/02 03:45:26;;;;;;;38.13;36.20;;;21.90;64.00;;;;;;5033520;28;20037;-79
2022/08/02 03:47:52;;;;;;;36.95;34.90;;;22.00;64.00;;;;;;5050830;28;20044;-78
2022/08/02 03:50:18;;;;;;;35.65;33.55;;;21.70;65.50;;;;;;5051062;28;20029;-79
2022/08/02 03:52:45;;;;;;;36.15;34.03;;;21.40;66.90;;;;;;5050537;28;20407;-79
2022/08/02 03:55:12;;;;;;;31.20;29.60;;;21.20;67.70;;;;;;5051055;28;20029;-79
2022/08/02 03:57:38;;;;;;;32.08;30.48;;;21.10;68.10;;;;;;5050899;28;20025;-78
2022/08/02 04:00:06;;;;;;;31.52;29.83;;;21.00;68.30;;;;;;5033462;28;20369;-79
2022/08/02 04:02:32;;;;;;;30.80;29.27;;;21.00;69.10;;;;;;5050667;28;20036;-79
2022/08/02 04:04:58;;;;;;;31.55;29.85;;;21.10;67.90;;;;;;5033709;28;20040;-79
2022/08/02 04:07:24;;;;;;;31.38;29.77;;;21.20;67.50;;;;;;5050315;28;20040;-79
2022/08/02 04:09:51;;;;;;;32.55;30.75;;;21.20;67.40;;;;;;5050499;28;20415;-79
2022/08/02 04:12:17;;;;;;;33.45;31.30;;;21.10;67.70;;;;;;5050381;28;20043;-79
2022/08/02 04:14:43;;;;;;;31.67;29.98;;;21.10;67.90;;;;;;5050484;28;20028;-78
2022/08/02 04:17:09;;;;;;;34.45;32.63;;;21.10;67.80;;;;;;5050007;28;20526;-79
2022/08/02 04:19:46;;;;;;;31.73;30.05;;;21.30;67.30;;;;;;5050200;28;20028;-79
2022/08/02 04:22:38;;;;;;;32.83;30.90;;;21.20;67.70;;;;;;5048007;28;20048;-79
2022/08/02 04:25:06;;;;;;;35.22;33.40;;;21.10;68.40;;;;;;5050311;28;20032;-79
2022/08/02 04:27:35;;;;;;;36.85;34.65;;;21.00;68.80;;;;;;5033389;28;20448;-79
2022/08/02 04:30:01;;;;;;;35.72;33.80;;;21.00;68.50;;;;;;5050212;28;20056;-79
2022/08/02 04:32:27;;;;;;;33.67;31.88;;;20.90;68.60;;;;;;5049605;28;20037;-79
2022/08/02 04:34:53;;;;;;;29.85;28.25;;;21.10;68.10;;;;;;5033241;28;20486;-79
2022/08/02 04:37:19;;;;;;;29.70;28.20;;;21.10;68.20;;;;;;5033428;28;20055;-79
2022/08/02 04:39:45;;;;;;;29.45;27.85;;;21.00;68.60;;;;;;5033243;28;20033;-79
2022/08/02 04:42:21;;;;;;;33.83;31.88;;;21.00;68.60;;;;;;5049977;28;20032;-79
2022/08/02 04:44:47;;;;;;;33.08;31.27;;;21.00;68.70;;;;;;5021330;28;20518;-79
2022/08/02 04:47:14;;;;;;;28.10;26.70;;;21.00;68.40;;;;;;5049225;28;20037;-79
2022/08/02 04:49:40;;;;;;;26.23;24.92;;;21.10;68.40;;;;;;5049560;28;20080;-79
2022/08/02 04:52:06;;;;;;;27.23;25.40;;;20.90;69.00;;;;;;5032378;28;20044;-79
2022/08/02 04:54:32;;;;;;;27.23;25.58;;;20.90;69.10;;;;;;5033353;28;20044;-79
2022/08/02 04:56:58;;;;;;;25.67;24.00;;;21.00;68.40;;;;;;5051029;28;20025;-79
2022/08/02 04:59:24;;;;;;;25.15;23.75;;;21.10;68.30;;;;;;5032907;28;20033;-78
2022/08/02 05:01:50;;;;;;;27.20;25.73;;;21.10;68.10;;;;;;5049216;28;20029;-79
2022/08/02 05:04:16;;;;;;;30.33;28.63;;;21.20;68.30;;;;;;5049633;28;20579;-79
2022/08/02 05:06:42;;;;;;;25.40;23.70;;;21.20;67.80;;;;;;5032901;28;20033;-79
2022/08/02 05:09:09;;;;;;;27.80;26.27;;;21.10;67.80;;;;;;5033242;28;20037;-79
2022/08/02 05:11:35;;;;;;;26.67;25.02;;;20.90;68.80;;;;;;5032692;28;20037;-79
2022/08/02 05:14:01;;;;;;;26.40;24.90;;;20.90;68.90;;;;;;5032448;28;20457;-78
2022/08/02 05:16:27;;;;;;;26.77;25.38;;;20.80;69.70;;;;;;5032372;28;20033;-79
2022/08/02 05:18:53;;;;;;;26.60;25.27;;;20.70;70.00;;;;;;5049569;28;20033;-79
2022/08/02 05:21:19;;;;;;;27.27;25.67;;;20.70;70.20;;;;;;5048820;28;20029;-79
2022/08/02 05:23:45;;;;;;;28.08;26.48;;;20.60;70.20;;;;;;5049435;28;20028;-79
2022/08/02 05:26:11;;;;;;;27.30;25.80;;;20.50;70.60;;;;;;5032571;28;20044;-78
2022/08/02 05:28:37;;;;;;;29.23;27.60;;;20.60;70.50;;;;;;5049219;28;20033;-78
2022/08/02 05:31:03;;;;;;;32.60;30.38;;;20.70;70.20;;;;;;5048776;28;20029;-79
2022/08/02 05:33:30;;;;;;;32.28;30.50;;;20.70;70.50;;;;;;5049171;28;20395;-79
2022/08/02 05:35:57;;;;;;;28.10;26.67;;;20.60;70.80;;;;;;5048223;28;20052;-78
2022/08/02 05:38:24;;;;;;;30.27;28.45;;;20.70;70.90;;;;;;5032700;28;20048;-78
2022/08/02 05:40:51;;;;;;;33.40;31.40;;;21.00;69.80;;;;;;5049059;28;20490;-78
2022/08/02 05:43:17;;;;;;;33.78;32.08;;;21.20;68.80;;;;;;5048717;28;20063;-79
2022/08/02 05:45:43;;;;;;;31.60;29.77;;;21.20;68.70;;;;;;5017914;28;20046;-79
2022/08/02 05:48:09;;;;;;;35.05;32.97;;;21.50;68.10;;;;;;5045758;28;20076;-78
2022/08/02 05:50:37;;;;;;;33.60;31.77;;;21.70;67.30;;;;;;5029906;28;20032;-78
2022/08/02 05:53:18;;;;;;;31.73;29.92;;;22.00;66.80;;;;;;5045836;28;20041;-79
2022/08/02 05:55:55;;;;;;;32.88;31.17;;;22.10;65.80;;;;;;5045810;28;20032;-79
2022/08/02 05:58:29;;;;;;;35.72;34.00;;;22.20;65.50;;;;;;5045217;28;20029;-79
2022/08/02 06:00:56;;;;;;;35.63;33.83;;;22.30;65.00;;;;;;5045278;28;20373;-79
2022/08/02 06:03:30;;;;;;;36.60;34.65;;;22.30;64.90;;;;;;5046501;28;20033;-78
2022/08/02 06:06:04;;;;;;;38.08;36.17;;;22.30;64.80;;;;;;5049797;28;20479;-78
2022/08/02 06:08:32;;;;;;;40.97;38.88;;;22.30;64.80;;;;;;5032868;28;20487;-79
2022/08/02 06:11:01;;;;;;;47.38;44.90;;;22.30;64.80;;;;;;5049483;28;20037;-78
2022/08/02 06:13:27;;;;;;;40.22;38.22;;;22.20;64.70;;;;;;5032544;28;20048;-79
2022/08/02 06:15:58;;;;;;;43.03;40.75;;;22.30;64.70;;;;;;5048810;28;20032;-79
2022/08/02 06:18:27;;;;;;;51.53;48.80;;;22.60;63.80;;;;;;5032067;28;20076;-79
2022/08/02 06:20:56;;;;;;;54.33;51.50;;;22.70;63.20;;;;;;5032178;28;20092;-79
2022/08/02 06:23:22;;;;;;;55.13;52.35;;;22.90;62.40;;;;;;5032542;28;20100;-78
2022/08/02 06:25:49;;;;;;;55.35;52.40;;;23.10;62.20;;;;;;5049298;28;20060;-79
2022/08/02 06:28:15;;;;;;;53.88;51.15;;;23.10;61.60;;;;;;5049327;28;20025;-79
2022/08/02 06:30:42;;;;;;;52.53;49.90;;;23.20;61.30;;;;;;5046433;28;20082;-79
2022/08/02 06:33:08;;;;;;;51.03;48.42;;;23.30;61.10;;;;;;5048922;28;20464;-79
2022/08/02 06:35:58;;;;;;;50.75;48.15;;;23.50;60.70;;;;;;5041820;28;20399;-79
2022/08/02 06:38:26;;;;;;;52.25;49.70;;;23.50;60.50;;;;;;5048855;28;20041;-79
2022/08/02 06:41:03;;;;;;;49.30;46.60;;;23.70;60.70;;;;;;4999836;28;20042;-79
2022/08/02 06:43:55;;;;;;;48.38;46.00;;;23.80;59.40;;;;;;5003804;28;20037;-79
2022/08/02 06:46:21;;;;;;;46.90;44.50;;;23.90;59.30;;;;;;5051244;28;20037;-79
2022/08/02 06:48:47;;;;;;;47.55;45.17;;;23.90;59.20;;;;;;5035514;28;20040;-79
2022/08/02 06:51:13;;;;;;;48.90;46.47;;;24.10;59.10;;;;;;5051968;28;20029;-79
2022/08/02 06:53:39;;;;;;;47.00;44.50;;;24.30;58.90;;;;;;5035526;28;20427;-79
2022/08/02 06:56:06;;;;;;;43.40;40.92;;;24.50;58.30;;;;;;5035416;28;20029;-79
2022/08/02 06:58:32;;;;;;;44.70;42.50;;;24.40;58.00;;;;;;5052087;28;20029;-79
2022/08/02 07:00:58;;;;;;;59.28;56.35;;;24.40;57.90;;;;;;5034770;28;20521;-79
2022/08/02 07:03:24;;;;;;;80.45;76.55;;;24.20;58.40;;;;;;5035530;28;20037;-79
2022/08/02 07:05:51;;;;;;;74.07;70.25;;;24.10;58.40;;;;;;5035416;28;20051;-78
2022/08/02 07:08:17;;;;;;;73.05;69.43;;;24.20;58.90;;;;;;5051831;28;20025;-79
2022/08/02 07:10:43;;;;;;;77.25;73.47;;;24.30;58.80;;;;;;5018661;28;20037;-79
2022/08/02 07:13:09;;;;;;;64.00;60.67;;;24.50;58.30;;;;;;5018560;28;20053;-79
2022/08/02 07:15:36;;;;;;;56.28;53.17;;;24.50;58.00;;;;;;5050534;28;20036;-79
2022/08/02 07:18:03;;;;;;;65.40;62.22;;;24.80;58.20;;;;;;5018549;28;20060;-79
2022/08/02 07:20:29;;;;;;;66.90;63.47;;;24.80;57.50;;;;;;5035144;28;20029;-79
2022/08/02 07:22:55;;;;;;;76.88;72.88;;;24.70;57.90;;;;;;5051514;28;20043;-79
2022/08/02 07:25:21;;;;;;;81.00;76.82;;;24.80;57.60;;;;;;5051357;28;20029;-79
2022/08/02 07:27:47;;;;;;;84.68;80.47;;;24.70;57.80;;;;;;5034920;28;20060;-79
2022/08/02 07:30:13;;;;;;;55.08;52.33;;;24.90;57.40;;;;;;5050380;28;20029;-79
2022/08/02 07:32:39;;;;;;;59.53;56.30;;;24.80;57.20;;;;;;5050634;28;20048;-79
2022/08/02 07:35:06;;;;;;;43.25;41.10;;;25.00;57.30;;;;;;5034344;28;20498;-79
2022/08/02 07:37:33;;;;;;;47.92;45.20;;;25.20;56.80;;;;;;5051199;28;20041;-79
2022/08/02 07:39:59;;;;;;;58.67;55.58;;;25.50;57.30;;;;;;5030755;28;20040;-79
2022/08/02 07:42:25;;;;;;;51.72;49.03;;;25.80;55.90;;;;;;5015166;28;20144;-79
2022/08/02 07:44:51;;;;;;;39.67;37.58;;;26.10;55.00;;;;;;5011459;28;20049;-79
2022/08/02 07:47:17;;;;;;;54.22;51.40;;;26.10;54.50;;;;;;5033662;28;20537;-79
2022/08/02 07:49:43;;;;;;;28.98;27.27;;;26.00;54.70;;;;;;5034293;28;20037;-79
2022/08/02 07:52:10;;;;;;;35.17;33.17;;;25.80;54.80;;;;;;5034400;28;20048;-79
2022/08/02 07:54:36;;;;;;;28.38;26.92;;;25.80;55.00;;;;;;5050741;28;20045;-79
2022/08/02 07:57:02;;;;;;;35.67;33.63;;;25.80;55.10;;;;;;5051080;28;20522;-79
2022/08/02 07:59:29;;;;;;;39.83;37.80;;;25.80;55.10;;;;;;5050257;28;20043;-79
2022/08/02 08:01:56;;;;;;;33.22;31.30;;;25.90;55.20;;;;;;5050302;28;20057;-79
2022/08/02 08:04:22;;;;;;;34.10;32.38;;;26.30;54.30;;;;;;5050733;28;20029;-79
2022/08/02 08:06:50;;;;;;;39.22;37.20;;;26.50;54.10;;;;;;5051836;28;20029;-79
2022/08/02 08:09:17;;;;;;;30.70;29.10;;;26.70;54.00;;;;;;5034266;28;20476;-79
2022/08/02 08:11:43;;;;;;;31.15;29.63;;;26.80;52.90;;;;;;5033684;28;20044;-79
2022/08/02 08:14:09;;;;;;;29.33;27.65;;;26.90;52.90;;;;;;5033213;28;20510;-79
2022/08/02 08:16:35;;;;;;;32.20;30.52;;;26.70;53.30;;;;;;5049839;28;20041;-79
2022/08/02 08:19:01;;;;;;;32.33;30.73;;;26.70;53.50;;;;;;5051802;28;20033;-79
2022/08/02 08:21:28;;;;;;;27.85;26.27;;;26.70;53.20;;;;;;5050326;28;20040;-79
2022/08/02 08:23:57;;;;;;;29.90;28.30;;;26.60;53.20;;;;;;5050320;28;20542;-79
2022/08/02 08:26:25;;;;;;;32.33;30.45;;;26.60;53.20;;;;;;5049628;28;20474;-79
2022/08/02 08:28:51;;;;;;;35.20;33.35;;;26.70;53.30;;;;;;5033629;28;20048;-79
2022/08/02 08:31:17;;;;;;;36.10;34.20;;;27.00;52.70;;;;;;5033243;28;20036;-79
2022/08/02 08:33:43;;;;;;;38.63;36.63;;;27.30;51.80;;;;;;5033933;28;20049;-79
2022/08/02 08:36:09;;;;;;;36.20;34.30;;;27.40;52.00;;;;;;5050243;28;20570;-79
2022/08/02 08:38:35;;;;;;;32.83;31.23;;;27.50;50.90;;;;;;5050074;28;20032;-79
2022/08/02 08:41:02;;;;;;;35.58;33.65;;;27.40;50.70;;;;;;5049882;28;20029;-79
2022/08/02 08:43:28;;;;;;;35.53;33.53;;;27.40;50.30;;;;;;5029706;28;20392;-79
2022/08/02 08:45:54;;;;;;;36.90;34.80;;;27.70;49.80;;;;;;5039963;28;20038;-79
2022/08/02 08:48:20;;;;;;;34.63;32.67;;;27.80;50.30;;;;;;5033239;28;20067;-79
2022/08/02 08:50:56;;;;;;;38.05;36.15;;;27.90;49.70;;;;;;5032679;28;20029;-79
2022/08/02 08:53:23;;;;;;;32.05;30.35;;;28.00;48.50;;;;;;5033195;28;20044;-79
2022/08/02 08:55:52;;;;;;;36.33;34.53;;;28.20;47.40;;;;;;5049732;28;20025;-79
2022/08/02 08:58:18;;;;;;;38.17;36.35;;;28.30;47.60;;;;;;5049527;28;20040;-79
2022/08/02 09:00:44;;;;;;;42.47;40.35;;;28.30;47.60;;;;;;5049102;28;20029;-79
2022/08/02 09:03:10;;;;;;;37.22;35.25;;;28.60;47.30;;;;;;5032987;28;20407;-79
2022/08/02 09:05:37;;;;;;;41.60;39.42;;;28.90;46.10;;;;;;5032962;28;20040;-79
2022/08/02 09:08:03;;;;;;;44.88;42.63;;;28.80;47.00;;;;;;5049458;28;20021;-79
2022/08/02 09:10:46;;;;;;;48.53;46.13;;;29.10;46.90;;;;;;5049471;28;20025;-79
2022/08/02 09:13:28;;;;;;;52.13;49.33;;;29.50;45.30;;;;;;5049128;28;20040;-79
2022/08/02 09:16:02;;;;;;;44.80;42.55;;;29.90;44.90;;;;;;5049117;28;20025;-79
2022/08/02 09:18:30;;;;;;;52.58;49.80;;;29.80;44.00;;;;;;5049611;28;20025;-79
2022/08/02 09:20:58;;;;;;;47.13;44.42;;;30.00;45.00;;;;;;5049517;28;20033;-79
2022/08/02 09:23:25;;;;;;;47.47;45.17;;;29.90;44.10;;;;;;5032710;28;20036;-79
2022/08/02 09:25:59;;;;;;;48.13;45.67;;;29.80;44.40;;;;;;5049375;28;20036;-79
2022/08/02 09:28:30;;;;;;;44.78;42.47;;;29.80;44.20;;;;;;5032806;28;20395;-79
2022/08/02 09:31:01;;;;;;;44.38;42.17;;;29.70;44.30;;;;;;5048798;28;20029;-79
2022/08/02 09:33:27;;;;;;;47.97;45.55;;;29.70;44.20;;;;;;5049123;28;20062;-79
2022/08/02 09:36:02;;;;;;;46.50;44.28;;;29.80;44.70;;;;;;5049114;28;20021;-79
2022/08/02 09:38:28;;;;;;;53.08;50.47;;;30.00;43.30;;;;;;5048758;28;20025;-80
2022/08/02 09:40:54;;;;;;;40.65;38.65;;;30.00;43.90;;;;;;5033035;28;20503;-80
2022/08/02 09:43:21;;;;;;;47.78;45.38;;;30.00;43.60;;;;;;5002699;28;20049;-79
2022/08/02 09:45:47;;;;;;;50.80;48.00;;;30.00;43.70;;;;;;5016121;28;20037;-79
2022/08/02 09:48:13;;;;;;;49.90;47.30;;;30.20;43.70;;;;;;5017181;28;20396;-79
2022/08/02 09:50:40;;;;;;;45.53;42.92;;;30.10;43.60;;;;;;5017050;28;20506;-80
2022/08/02 09:53:11;;;;;;;47.70;44.90;;;30.10;43.20;;;;;;5033117;28;20045;-80
2022/08/02 09:55:38;;;;;;;46.00;43.70;;;30.30;43.00;;;;;;5032541;28;20041;-80
2022/08/02 09:58:18;;;;;;;44.85;42.25;;;30.40;43.00;;;;;;5016713;28;20040;-79
2022/08/02 10:00:54;;;;;;;47.58;45.25;;;30.50;42.80;;;;;;5032699;28;20029;-81
2022/08/02 10:03:20;;;;;;;45.45;42.95;;;30.40;43.00;;;;;;5016641;28;20408;-79
2022/08/02 10:05:54;;;;;;;52.10;48.97;;;30.50;43.00;;;;;;5016418;28;20038;-79
2022/08/02 10:08:21;;;;;;;50.00;47.20;;;30.80;43.50;;;;;;5016635;28;20038;-79
2022/08/02 10:10:47;;;;;;;53.38;50.53;;;31.00;41.80;;;;;;5016023;28;20056;-79
2022/08/02 10:13:14;;;;;;;53.08;50.45;;;31.40;42.50;;;;;;5016123;28;20400;-79
2022/08/02 10:15:40;;;;;;;52.42;49.70;;;31.70;40.80;;;;;;5016019;28;20383;-79
2022/08/02 10:18:06;;;;;;;55.17;52.28;;;31.50;41.00;;;;;;5015718;28;20049;-79
2022/08/02 10:20:36;;;;;;;49.08;46.63;;;31.60;41.20;;;;;;5033921;28;20034;-79
2022/08/02 10:23:02;;;;;;;50.10;47.70;;;31.40;41.00;;;;;;5016001;28;20395;-79
2022/08/02 10:25:28;;;;;;;49.15;46.33;;;31.40;41.30;;;;;;5016388;28;20021;-79
2022/08/02 10:27:54;;;;;;;48.03;45.63;;;31.50;40.90;;;;;;5000934;28;20050;-79
2022/08/02 10:30:22;;;;;;;47.03;44.03;;;31.40;40.60;;;;;;5015431;28;20044;-79
2022/08/02 10:32:48;;;;;;;48.13;45.78;;;31.20;41.20;;;;;;5032522;28;20484;-79
2022/08/02 10:35:19;;;;;;;44.80;42.58;;;31.30;41.10;;;;;;5027012;28;20055;-79
2022/08/02 10:37:46;;;;;;;42.92;40.83;;;31.10;41.00;;;;;;5035291;28;20037;-79
2022/08/02 10:40:27;;;;;;;47.88;45.58;;;31.20;40.80;;;;;;5034777;28;20041;-79
2022/08/02 10:42:58;;;;;;;45.63;43.13;;;31.30;40.90;;;;;;5052236;28;20029;-79
2022/08/02 10:45:24;;;;;;;52.75;50.22;;;31.60;40.50;;;;;;5038744;28;20491;-79
2022/08/02 10:48:02;;;;;;;47.10;44.60;;;31.60;39.90;;;;;;5035689;28;20052;-79
2022/08/02 10:50:46;;;;;;;51.75;48.88;;;31.60;40.10;;;;;;5051543;28;20539;-79
2022/08/02 10:53:28;;;;;;;52.97;50.30;;;31.70;40.10;;;;;;5051379;28;20048;-79
2022/08/02 10:55:58;;;;;;;51.97;49.47;;;32.00;39.20;;;;;;5052246;28;20052;-79
2022/08/02 10:58:31;;;;;;;50.80;48.28;;;32.20;38.90;;;;;;5051889;28;20024;-79
2022/08/02 11:00:58;;;;;;;47.30;44.75;;;32.30;38.80;;;;;;5051569;28;20033;-79
2022/08/02 11:03:27;;;;;;;46.97;44.67;;;32.30;38.40;;;;;;5035260;28;20040;-79
2022/08/02 11:06:01;;;;;;;45.65;43.42;;;32.10;38.10;;;;;;5053098;28;20033;-79
2022/08/02 11:08:28;;;;;;;47.45;44.85;;;31.80;39.40;;;;;;5051605;28;20036;-79
2022/08/02 11:11:09;;;;;;;48.63;46.30;;;31.70;39.40;;;;;;5052121;28;20040;-79
2022/08/02 11:13:58;;;;;;;52.55;49.65;;;31.90;38.80;;;;;;5052672;28;20029;-79
2022/08/02 11:16:46;;;;;;;47.33;45.03;;;32.00;39.40;;;;;;5044603;28;20392;-79
2022/08/02 11:19:12;;;;;;;52.15;49.60;;;32.00;38.70;;;;;;5051742;28;20479;-79
2022/08/02 11:21:38;;;;;;;42.67;40.58;;;31.90;39.10;;;;;;5051404;28;20029;-79
2022/08/02 11:24:30;;;;;;;41.72;39.13;;;31.70;39.60;;;;;;5051155;28;20092;-79
2022/08/02 11:27:06;;;;;;;47.78;45.38;;;31.60;39.50;;;;;;5051504;28;20375;-79
2022/08/02 11:29:43;;;;;;;50.00;47.50;;;31.60;39.30;;;;;;5051098;28;20036;-79
2022/08/02 11:32:20;;;;;;;47.67;45.38;;;32.00;39.00;;;;;;5034154;28;20399;-79
2022/08/02 11:34:51;;;;;;;50.35;47.85;;;32.20;38.20;;;;;;5051070;28;20040;-79
2022/08/02 11:37:35;;;;;;;46.05;43.55;;;32.30;38.20;;;;;;5050815;28;20033;-79
2022/08/02 11:40:05;;;;;;;48.85;46.35;;;32.30;37.70;;;;;;5034019;28;20044;-79
2022/08/02 11:42:33;;;;;;;1029.60;528.10;;;32.50;37.50;;;;;;5034127;28;20036;-79
2022/08/02 11:44:59;;;;;;;1999.90;999.90;;;32.80;37.20;;;;;;5038006;28;20017;-79
2022/08/02 11:47:25;;;;;;;46.40;43.90;;;32.90;36.30;;;;;;5050431;28;20045;-79
2022/08/02 11:49:51;;;;;;;1999.90;999.90;;;32.70;37.00;;;;;;5034181;28;20048;-79
2022/08/02 11:52:17;;;;;;;1999.90;999.90;;;32.90;37.20;;;;;;5034082;28;20033;-79
2022/08/02 11:54:43;;;;;;;49.22;46.50;;;32.80;36.20;;;;;;5034189;28;20049;-79
2022/08/02 11:57:15;;;;;;;45.47;43.17;;;32.60;36.30;;;;;;5034224;28;20494;-79
2022/08/02 11:59:42;;;;;;;49.00;46.67;;;32.40;36.60;;;;;;5051906;28;20036;-79
2022/08/02 12:02:09;;;;;;;50.28;47.67;;;32.60;36.50;;;;;;5032552;28;20538;-79
2022/08/02 12:04:35;;;;;;;1999.90;999.90;;;32.70;36.90;;;;;;5034005;28;20529;-79
2022/08/02 12:07:02;;;;;;;1999.90;999.90;;;32.90;36.70;;;;;;5050489;28;20029;-79
2022/08/02 12:09:29;;;;;;;1999.90;999.90;;;33.20;35.90;;;;;;5033714;28;20040;-79
2022/08/02 12:11:55;;;;;;;1999.90;999.90;;;33.10;35.60;;;;;;5050626;28;20040;-79
2022/08/02 12:14:23;;;;;;;1999.90;999.90;;;33.30;35.80;;;;;;5050239;28;20052;-79
2022/08/02 12:19:34;;;;;;;1999.90;999.90;;;33.40;34.60;;;;;;5057123;28;20033;-79
2022/08/02 12:22:18;;;;;;;1999.90;999.90;;;33.40;34.20;;;;;;5051346;28;20494;-79
2022/08/02 12:24:47;;;;;;;1999.90;999.90;;;33.30;33.70;;;;;;5051549;28;20443;-79
2022/08/02 12:27:32;;;;;;;1999.90;999.90;;;33.30;34.70;;;;;;5034064;28;20111;-79
2022/08/02 12:30:20;;;;;;;1999.90;999.90;;;33.60;34.50;;;;;;5033249;28;20506;-79
2022/08/02 12:32:46;;;;;;;1999.90;999.90;;;34.00;34.30;;;;;;5050399;28;20044;-79
2022/08/02 12:35:15;;;;;;;1999.90;999.90;;;34.20;32.60;;;;;;5049749;28;20049;-79
2022/08/02 12:37:43;;;;;;;1999.90;999.90;;;33.90;32.80;;;;;;5033587;28;20044;-79